Time;durP1;ratioP1;P1;durP2;ratioP2;P2;SDS_P1;SDS_P2;PMS_P1;PMS_P2;Temp;Humidity;BMP_temperature;BMP_pressure;BME280_temperature;BME280_humidity;BME280_pressure;Samples;Min_cycle;Max_cycle;Signal;HPM_P1;HPM_P2
2021/03/02 00:01:15;;;;;;;;;;;;;;;;;;;;;
2021/03/02 00:03:53;;;;;;;;;;;;;;;;;;;;;
2021/03/02 00:06:20;;;;;;;30.77;13.02;;;;;;;4.01;64.62;101668.72;6224317;23;20031;-74
2021/03/02 00:08:45;;;;;;;43.78;17.08;;;;;;;4.11;65.40;101684.66;6222584;23;20031;-74
2021/03/02 00:11:20;;;;;;;40.83;16.10;;;;;;;4.09;65.49;101678.56;6196254;23;20036;-73
2021/03/02 00:13:45;;;;;;;41.20;16.50;;;;;;;4.06;64.40;101676.25;6196881;23;20101;-73
2021/03/02 00:16:25;;;;;;;30.30;13.13;;;;;;;4.05;65.54;101672.72;6195954;23;20019;-75
2021/03/02 00:18:56;;;;;;;28.08;11.85;;;;;;;4.01;64.47;101664.13;6195314;23;20058;-73
2021/03/02 00:21:31;;;;;;;23.15;11.95;;;;;;;4.07;65.44;101677.94;6223582;23;20023;-74
2021/03/02 00:24:03;;;;;;;31.63;13.30;;;;;;;4.01;65.49;101674.13;6193821;23;20007;-73
2021/03/02 00:26:35;;;;;;;22.17;11.90;;;;;;;3.95;64.85;101686.56;6224280;23;20016;-74
2021/03/02 00:29:03;;;;;;;24.38;11.32;;;;;;;3.89;65.03;101681.91;6194849;23;20032;-74
2021/03/02 00:31:31;;;;;;;42.13;17.10;;;;;;;3.81;65.38;101679.31;6197860;23;20024;-74
2021/03/02 00:33:57;;;;;;;37.80;15.77;;;;;;;3.89;65.55;101687.34;6219598;23;20001;-72
2021/03/02 00:36:22;;;;;;;37.10;14.90;;;;;;;3.89;65.23;101681.91;6198024;23;20012;-74
2021/03/02 00:38:51;;;;;;;32.85;15.10;;;;;;;3.90;65.72;101675.47;6218551;23;20012;-74
2021/03/02 00:41:36;;;;;;;30.73;14.48;;;;;;;3.91;66.22;101671.72;6197769;23;20013;-73
2021/03/02 00:44:15;;;;;;;;;;;;;;;;;;;;;
2021/03/02 00:46:48;;;;;;;39.63;15.60;;;;;;;3.92;66.66;101662.59;6224549;23;20024;-74
2021/03/02 00:49:16;;;;;;;30.75;12.55;;;;;;;3.91;65.92;101655.50;6195187;23;20332;-74
2021/03/02 00:51:47;;;;;;;40.35;14.10;;;;;;;3.90;66.33;101644.84;6210303;23;20024;-73
2021/03/02 00:54:17;;;;;;;48.30;16.05;;;;;;;3.88;65.99;101646.94;6222357;23;20055;-75
2021/03/02 00:56:45;;;;;;;24.98;12.52;;;;;;;3.85;66.42;101648.13;6220179;23;20004;-74
2021/03/02 00:59:10;;;;;;;26.92;11.55;;;;;;;4.01;66.21;101668.72;6198776;23;20071;-73
2021/03/02 01:01:47;;;;;;;21.05;11.20;;;;;;;3.89;65.96;101660.25;6223796;23;20637;-74
2021/03/02 01:04:12;;;;;;;32.08;13.65;;;;;;;3.94;65.30;101674.06;6175132;23;20015;-74
2021/03/02 01:06:38;;;;;;;30.00;13.43;;;;;;;3.83;65.32;101661.03;6173287;23;20075;-74
2021/03/02 01:09:07;;;;;;;27.48;12.18;;;;;;;3.92;66.31;101675.28;6225008;23;20009;-73
2021/03/02 01:11:35;;;;;;;28.92;12.68;;;;;;;3.95;65.62;101667.63;6222486;22;20016;-73
2021/03/02 01:14:04;;;;;;;32.10;12.68;;;;;;;4.01;66.78;101676.84;6195171;23;20008;-74
2021/03/02 01:16:32;;;;;;;28.90;12.15;;;;;;;4.10;66.67;101672.13;6224366;23;20008;-73
2021/03/02 01:18:57;;;;;;;27.65;12.65;;;;;;;4.19;66.03;101661.00;6197207;23;20084;-75
2021/03/02 01:21:26;;;;;;;25.13;11.60;;;;;;;4.29;65.81;101671.53;6196066;23;20047;-73
2021/03/02 01:23:51;;;;;;;38.83;12.98;;;;;;;4.36;65.79;101664.25;6192492;23;20004;-73
2021/03/02 01:26:22;;;;;;;31.90;12.50;;;;;;;4.39;65.44;101654.09;6221061;23;20011;-73
2021/03/02 01:28:50;;;;;;;42.42;16.05;;;;;;;4.39;65.89;101654.09;6186467;23;20015;-74
2021/03/02 01:31:18;;;;;;;38.85;15.00;;;;;;;4.45;66.15;101664.13;6220932;23;20016;-73
2021/03/02 01:33:43;;;;;;;37.05;15.32;;;;;;;4.52;65.46;101665.03;6194706;23;20004;-73
2021/03/02 01:36:09;;;;;;;22.60;10.88;;;;;;;4.50;66.00;101659.81;6192475;23;20019;-72
2021/03/02 01:38:37;;;;;;;25.25;10.45;;;;;;;4.43;65.23;101658.91;6195807;23;20036;-74
2021/03/02 01:41:12;;;;;;;44.00;16.42;;;;;;;4.39;65.66;101654.09;6223481;23;20009;-73
2021/03/02 01:43:47;;;;;;;38.42;14.95;;;;;;;4.26;66.44;101644.81;6199183;23;20020;-71
2021/03/02 01:46:15;;;;;;;29.95;12.60;;;;;;;4.19;66.24;101649.31;6199511;23;20001;-73
2021/03/02 01:48:44;;;;;;;31.58;13.00;;;;;;;4.23;65.58;101661.44;6219092;23;20076;-71
2021/03/02 01:51:12;;;;;;;22.77;11.02;;;;;;;4.16;65.83;101655.13;6194068;23;20055;-72
2021/03/02 01:53:38;;;;;;;38.20;12.93;;;;;;;4.12;65.71;101660.09;6196618;23;20020;-72
2021/03/02 01:56:04;;;;;;;46.45;15.40;;;;;;;3.99;66.18;101652.66;6224686;23;20011;-73
2021/03/02 01:58:29;;;;;;;43.92;15.65;;;;;;;3.98;66.37;101648.28;6227996;23;20007;-73
2021/03/02 02:01:06;;;;;;;53.83;18.48;;;;;;;3.96;66.02;101650.34;6224783;23;20005;-72
2021/03/02 02:03:44;;;;;;;51.33;17.38;;;;;;;3.88;66.02;101631.53;6223503;23;20319;-73
2021/03/02 02:06:28;;;;;;;40.40;14.45;;;;;;;3.86;66.80;101632.75;6224785;23;19997;-72
2021/03/02 02:09:11;;;;;;;42.78;14.52;;;;;;;3.93;67.19;101636.34;6222577;23;20003;-72
2021/03/02 02:12:04;;;;;;;36.90;13.75;;;;;;;3.93;66.89;101634.50;6225244;22;20012;-73
2021/03/02 02:14:56;;;;;;;47.88;15.57;;;;;;;3.96;67.16;101636.81;6223478;23;20000;-74
2021/03/02 02:17:30;;;;;;;31.40;12.80;;;;;;;3.95;66.71;101640.53;6196234;23;20032;-74
2021/03/02 02:20:09;;;;;;;23.00;10.52;;;;;;;3.89;67.34;101629.66;6196352;23;20008;-73
2021/03/02 02:23:22;;;;;;;28.17;11.05;;;;;;;4.03;66.77;101628.78;6220570;23;20008;-73
2021/03/02 02:26:06;;;;;;;29.33;12.68;;;;;;;4.04;65.97;101626.91;6131429;23;20533;-73
2021/03/02 02:28:34;;;;;;;32.20;12.70;;;;;;;4.04;66.81;101629.59;6225607;23;20482;-73
2021/03/02 02:31:03;;;;;;;32.20;11.73;;;;;;;4.17;66.32;101646.81;6221465;23;20015;-72
2021/03/02 02:33:35;;;;;;;28.83;11.82;;;;;;;4.15;66.56;101631.81;6222913;23;20019;-72
2021/03/02 02:36:03;;;;;;;42.08;15.55;;;;;;;4.31;66.43;101647.78;6199295;23;20011;-72
2021/03/02 02:38:38;;;;;;;36.97;15.25;;;;;;;4.29;66.91;101628.19;6171454;23;20012;-72
2021/03/02 02:41:05;;;;;;;36.67;15.02;;;;;;;4.37;67.20;101630.75;6198065;23;20015;-70
2021/03/02 02:43:32;;;;;;;33.70;12.90;;;;;;;4.57;66.32;101635.50;6196374;23;20009;-72
2021/03/02 02:46:00;;;;;;;42.03;13.43;;;;;;;4.66;66.22;101628.91;6222777;23;19997;-73
2021/03/02 02:48:27;;;;;;;28.90;13.23;;;;;;;4.79;66.67;101638.13;6223120;23;20004;-72
2021/03/02 02:50:53;;;;;;;38.25;13.32;;;;;;;4.82;66.27;101618.78;6187501;23;20012;-72
2021/03/02 02:53:20;;;;;;;43.05;14.23;;;;;;;4.92;66.37;101630.13;6224186;23;20009;-72
2021/03/02 02:55:52;;;;;;;35.78;14.35;;;;;;;4.86;66.25;101623.63;6220285;23;20000;-73
2021/03/02 02:58:33;;;;;;;;;;;;;;;;;;;;;
2021/03/02 03:01:03;;;;;;;57.90;18.00;;;;;;;5.00;66.39;101638.06;6218538;23;20043;-72
2021/03/02 03:03:32;;;;;;;55.45;18.95;;;;;;;4.91;66.02;101623.03;6198517;23;19997;-72
2021/03/02 03:06:04;;;;;;;40.70;15.05;;;;;;;4.94;65.80;101625.31;6219306;23;20008;-70
2021/03/02 03:08:32;;;;;;;63.10;19.08;;;;;;;5.08;66.44;101631.66;6198838;23;20001;-71
2021/03/02 03:11:12;;;;;;;37.65;14.48;;;;;;;5.14;66.65;101630.00;6204286;23;20020;-71
2021/03/02 03:13:44;;;;;;;38.92;15.15;;;;;;;5.13;66.47;101606.66;6254848;23;20000;-71
2021/03/02 03:16:12;;;;;;;44.13;16.48;;;;;;;5.28;65.53;101618.19;6252258;23;20004;-70
2021/03/02 03:18:47;;;;;;;63.75;21.20;;;;;;;5.18;65.45;101596.91;6253239;23;20004;-69
2021/03/02 03:21:21;;;;;;;55.92;20.30;;;;;;;5.21;65.60;101604.63;6252734;23;20012;-70
2021/03/02 03:24:05;;;;;;;58.63;18.73;;;;;;;5.33;65.99;101612.16;6225818;23;20482;-75
2021/03/02 03:26:33;;;;;;;43.95;16.05;;;;;;;5.24;65.88;101597.94;6230158;23;20008;-75
2021/03/02 03:29:02;;;;;;;28.52;11.93;;;;;;;5.30;65.30;101597.16;6205563;23;20031;-75
2021/03/02 03:31:36;;;;;;;48.10;15.27;;;;;;;5.45;66.16;101610.56;6229650;23;20008;-75
2021/03/02 03:34:09;;;;;;;41.45;14.45;;;;;;;5.47;65.39;101602.22;6230066;23;20008;-75
2021/03/02 03:36:36;;;;;;;67.47;20.23;;;;;;;5.44;65.08;101583.63;6228589;23;20627;-76
2021/03/02 03:39:05;;;;;;;53.42;17.98;;;;;;;5.46;65.55;101601.41;6224590;23;20072;-76
2021/03/02 03:41:31;;;;;;;61.00;18.55;;;;;;;5.45;65.52;101593.44;6254722;23;20023;-76
2021/03/02 03:43:59;;;;;;;43.50;14.73;;;;;;;5.47;65.83;101603.03;6255773;23;20335;-74
2021/03/02 03:46:25;;;;;;;44.53;16.35;;;;;;;5.35;65.49;101583.81;6231989;23;20008;-74
2021/03/02 03:48:56;;;;;;;35.42;13.02;;;;;;;5.38;65.20;101598.84;6228613;23;20007;-74
2021/03/02 03:51:25;;;;;;;61.25;18.77;;;;;;;5.42;66.06;101595.53;6206310;23;20008;-73
2021/03/02 03:53:51;;;;;;;42.38;14.23;;;;;;;5.36;65.34;101588.19;6222183;23;20000;-74
2021/03/02 03:56:24;;;;;;;49.92;17.63;;;;;;;5.42;65.11;101600.94;6203973;23;20004;-75
2021/03/02 03:58:51;;;;;;;40.67;15.23;;;;;;;5.34;65.49;101586.72;6252562;23;20024;-74
2021/03/02 04:01:18;;;;;;;46.28;16.65;;;;;;;5.42;65.39;101600.13;6229940;23;20411;-75
2021/03/02 04:03:47;;;;;;;48.20;15.00;;;;;;;5.35;65.70;101586.53;6198717;23;20004;-74
2021/03/02 04:06:13;;;;;;;51.30;17.42;;;;;;;5.45;65.61;101610.56;6225343;23;20027;-74
2021/03/02 04:08:41;;;;;;;54.25;18.17;;;;;;;5.38;66.04;101588.81;6254822;23;20079;-73
2021/03/02 04:11:07;;;;;;;60.13;21.58;;;;;;;5.40;65.95;101591.31;6255903;22;20016;-74
2021/03/02 04:13:32;;;;;;;59.08;19.52;;;;;;;5.31;66.05;101577.09;6227635;23;20042;-74
2021/03/02 04:16:01;;;;;;;45.33;16.95;;;;;;;5.37;66.17;101584.47;6228847;23;20019;-75
2021/03/02 04:18:26;;;;;;;48.67;17.13;;;;;;;5.42;65.62;101587.38;6255315;23;20004;-75
2021/03/02 04:20:53;;;;;;;56.38;18.13;;;;;;;5.37;65.76;101573.59;6229235;23;20015;-75
2021/03/02 04:23:21;;;;;;;32.75;14.15;;;;;;;5.53;66.10;101590.53;6256460;23;20019;-75
2021/03/02 04:25:50;;;;;;;51.30;18.23;;;;;;;5.48;65.75;101582.19;6231652;23;20411;-74
2021/03/02 04:28:18;;;;;;;62.42;19.23;;;;;;;5.51;65.75;101587.22;6229674;23;20004;-75
2021/03/02 04:30:50;;;;;;;41.45;15.52;;;;;;;5.41;66.13;101572.13;6229532;23;20018;-75
2021/03/02 04:33:18;;;;;;;42.35;15.95;;;;;;;5.58;65.76;101594.31;6257137;23;20016;-74
2021/03/02 04:35:44;;;;;;;42.15;14.82;;;;;;;5.51;65.22;101576.34;6199584;23;20073;-75
2021/03/02 04:38:09;;;;;;;33.15;13.45;;;;;;;5.59;65.30;101590.56;6178729;23;20012;-75
2021/03/02 04:40:35;;;;;;;57.72;19.10;;;;;;;5.51;65.71;101581.78;6222702;23;20019;-75
2021/03/02 04:43:01;;;;;;;50.33;16.27;;;;;;;5.41;65.81;101566.72;6230657;23;20003;-76
2021/03/02 04:45:26;;;;;;;49.80;16.35;;;;;;;5.56;65.29;101601.84;6255291;23;20007;-75
2021/03/02 04:47:52;;;;;;;38.63;14.70;;;;;;;5.40;65.57;101581.34;6230994;23;20004;-75
2021/03/02 04:50:20;;;;;;;51.95;17.95;;;;;;;5.54;65.03;101613.94;6227129;23;20479;-75
2021/03/02 04:52:48;;;;;;;51.10;17.58;;;;;;;5.40;65.74;101586.75;6230156;23;20000;-75
2021/03/02 04:55:14;;;;;;;50.17;15.60;;;;;;;5.51;65.67;101600.78;6256352;23;20004;-74
2021/03/02 04:57:49;;;;;;;;;;;;;;;;;;;;;
2021/03/02 05:00:25;;;;;;;;;;;;;;;;;;;;;
2021/03/02 05:02:51;;;;;;;45.92;16.67;;;;;;;5.36;65.81;101590.06;6228002;23;20030;-74
2021/03/02 05:05:17;;;;;;;49.78;16.67;;;;;;;5.48;66.08;101603.91;6223600;23;20000;-74
2021/03/02 05:07:53;;;;;;;43.70;16.10;;;;;;;5.42;65.91;101595.53;6252928;23;20015;-74
2021/03/02 05:10:21;;;;;;;59.67;19.77;;;;;;;5.33;66.33;101575.06;6220077;23;20012;-74
2021/03/02 05:12:47;;;;;;;35.85;14.35;;;;;;;5.44;65.96;101597.19;6195909;23;20023;-73
2021/03/02 05:15:23;;;;;;;;;;;;;;;;;;;;;
2021/03/02 05:17:49;;;;;;;52.67;18.50;;;;;;;5.45;66.26;101585.28;6226298;23;20028;-74
2021/03/02 05:20:15;;;;;;;62.00;20.50;;;;;;;5.35;66.31;101572.13;6197528;23;20015;-74
2021/03/02 05:22:40;;;;;;;53.40;18.75;;;;;;;5.41;66.56;101593.84;6195820;23;20498;-75
2021/03/02 05:25:06;;;;;;;36.47;13.07;;;;;;;5.37;66.07;101584.47;6173447;23;20408;-75
2021/03/02 05:27:32;;;;;;;52.72;16.80;;;;;;;5.41;66.23;101585.69;6147467;23;20068;-74
2021/03/02 05:29:57;;;;;;;42.03;14.32;;;;;;;5.31;66.17;101581.72;6199107;23;20005;-75
2021/03/02 05:32:23;;;;;;;51.72;17.38;;;;;;;5.32;66.67;101589.63;6196709;23;20012;-74
2021/03/02 05:35:00;;;;;;;49.58;18.08;;;;;;;5.30;66.49;101591.72;6226026;23;20008;-74
2021/03/02 05:37:29;;;;;;;42.78;16.10;;;;;;;5.19;66.40;101563.28;6174423;23;20019;-73
2021/03/02 05:40:01;;;;;;;42.92;16.67;;;;;;;5.35;66.16;101597.38;6227295;23;20099;-74
2021/03/02 05:42:27;;;;;;;35.45;13.95;;;;;;;5.32;66.75;101586.94;6195667;23;19997;-74
2021/03/02 05:44:55;;;;;;;43.72;16.77;;;;;;;5.38;66.68;101598.84;6173902;23;20001;-74
2021/03/02 05:47:21;;;;;;;50.72;17.48;;;;;;;5.36;66.72;101601.75;6198563;23;20004;-74
2021/03/02 05:49:49;;;;;;;39.17;14.20;;;;;;;5.30;66.58;101597.16;6173050;23;20013;-74
2021/03/02 05:52:18;;;;;;;53.95;21.17;;;;;;;5.34;66.14;101609.25;6199535;23;20009;-74
2021/03/02 05:54:52;;;;;;;61.03;23.13;;;;;;;5.25;67.04;101616.72;6223871;23;20001;-74
2021/03/02 05:57:21;;;;;;;54.05;15.82;;;;;;;5.17;66.81;101613.34;6200658;23;20012;-75
2021/03/02 05:59:50;;;;;;;38.20;14.57;;;;;;;5.12;66.68;101599.56;6172927;23;20016;-74
2021/03/02 06:02:16;;;;;;;49.38;16.20;;;;;;;5.14;66.54;101600.19;6196600;23;20008;-74
2021/03/02 06:04:42;;;;;;;33.17;13.77;;;;;;;5.16;66.93;101606.25;6223584;23;20023;-74
2021/03/02 06:07:16;;;;;;;47.78;18.38;;;;;;;5.14;66.63;101602.91;6197807;23;20020;-74
2021/03/02 06:09:42;;;;;;;58.42;20.80;;;;;;;5.13;66.82;101598.53;6225510;23;20027;-73
2021/03/02 06:12:08;;;;;;;54.65;18.50;;;;;;;5.04;66.58;101593.25;6200147;23;20019;-74
2021/03/02 06:14:35;;;;;;;70.50;24.70;;;;;;;5.01;66.94;101585.53;6225374;23;20028;-74
2021/03/02 06:17:11;;;;;;;;;;;;;;;;;;;;;
2021/03/02 06:19:47;;;;;;;47.92;18.02;;;;;;;5.01;67.32;101600.97;6220354;23;20020;-75
2021/03/02 06:22:34;;;;;;;59.95;18.30;;;;;;;5.02;66.96;101595.34;6198239;23;20424;-75
2021/03/02 06:25:02;;;;;;;43.63;15.52;;;;;;;4.92;66.88;101586.75;6224981;23;20061;-74
2021/03/02 06:27:31;;;;;;;39.60;14.35;;;;;;;4.96;66.97;101579.88;6197027;23;20035;-73
2021/03/02 06:30:16;;;;;;;39.38;15.45;;;;;;;5.04;67.54;101587.84;6226519;23;20056;-74
2021/03/02 06:32:52;;;;;;;46.85;15.88;;;;;;;4.94;66.96;101581.94;6200578;23;20008;-75
2021/03/02 06:35:49;;;;;;;46.92;17.52;;;;;;;5.10;67.30;101594.34;6226412;23;20007;-74
2021/03/02 06:38:33;;;;;;;49.42;18.58;;;;;;;5.03;67.39;101601.59;6177850;23;20000;-75
2021/03/02 06:41:09;;;;;;;42.40;15.57;;;;;;;4.94;66.65;101584.66;6226819;23;20012;-74
2021/03/02 06:43:34;;;;;;;42.22;15.18;;;;;;;5.05;67.18;101613.94;6227019;23;20010;-75
2021/03/02 06:46:13;;;;;;;38.15;14.95;;;;;;;4.94;66.72;101587.38;6197571;23;20000;-74
2021/03/02 06:48:59;;;;;;;46.58;16.20;;;;;;;4.99;67.21;101595.72;6199530;23;20013;-74
2021/03/02 06:51:35;;;;;;;55.17;20.40;;;;;;;5.00;67.58;101602.84;6225029;23;20004;-74
2021/03/02 06:54:16;;;;;;;45.50;16.88;;;;;;;5.02;66.71;101616.19;6227232;23;20048;-73
2021/03/02 06:57:03;;;;;;;46.33;17.33;;;;;;;5.01;67.62;101620.78;6199408;23;20008;-74
2021/03/02 06:59:29;;;;;;;42.47;16.08;;;;;;;5.00;67.87;101618.28;6199679;23;20008;-74
2021/03/02 07:01:59;;;;;;;42.60;14.80;;;;;;;5.12;66.89;101632.94;6199429;23;20039;-75
2021/03/02 07:04:28;;;;;;;44.72;14.95;;;;;;;5.05;67.61;101616.63;6197921;23;20009;-73
2021/03/02 07:06:56;;;;;;;41.22;16.65;;;;;;;5.10;67.74;101628.78;6196327;23;20052;-73
2021/03/02 07:09:22;;;;;;;50.38;19.02;;;;;;;5.17;67.05;101646.75;6230641;23;20062;-75
2021/03/02 07:11:48;;;;;;;38.13;14.30;;;;;;;5.06;67.22;101621.00;6249589;23;20020;-74
2021/03/02 07:14:14;;;;;;;22.25;11.30;;;;;;;5.17;67.47;101635.03;6238651;23;20011;-74
2021/03/02 07:16:45;;;;;;;32.13;13.35;;;;;;;5.16;66.96;101631.50;6258488;23;20004;-74
2021/03/02 07:19:31;;;;;;;48.75;17.67;;;;;;;5.24;66.50;101635.91;6259016;23;20000;-74
2021/03/02 07:21:59;;;;;;;;;;;;;;;5.27;66.90;101648.25;6255221;23;20024;-75
2021/03/02 07:24:26;;;;;;;52.47;20.10;;;;;;;5.12;66.87;101621.25;6231561;23;19903;-74
2021/03/02 07:26:55;;;;;;;62.83;21.02;;;;;;;5.26;67.27;101652.84;6227339;23;20082;-74
2021/03/02 07:29:23;;;;;;;46.17;18.77;;;;;;;5.13;67.22;101633.78;6197249;23;20035;-76
2021/03/02 07:31:49;;;;;;;52.58;18.08;;;;;;;5.23;67.53;101650.53;6227737;23;20088;-76
2021/03/02 07:34:18;;;;;;;57.22;20.25;;;;;;;5.18;67.86;101636.72;6200158;23;20004;-75
2021/03/02 07:36:44;;;;;;;34.60;14.73;;;;;;;5.24;67.54;101646.75;6228975;23;20011;-77
2021/03/02 07:39:16;;;;;;;41.33;15.52;;;;;;;5.21;67.06;101645.31;6228548;23;20008;-73
2021/03/02 07:41:42;;;;;;;39.85;14.63;;;;;;;5.20;67.39;101661.78;6228450;23;20011;-74
2021/03/02 07:44:08;;;;;;;25.08;10.57;;;;;;;5.18;67.35;101653.00;6252011;23;20319;-74
2021/03/02 07:46:49;;;;;;;;;;;;;;;;;;;;;
2021/03/02 07:49:24;;;;;;;51.55;20.65;;;;;;;5.24;68.25;101673.88;6255132;23;20035;-74
2021/03/02 07:52:12;;;;;;;54.42;17.92;;;;;;;5.21;67.99;101674.28;6255410;23;20000;-77
2021/03/02 07:54:41;;;;;;;49.88;18.52;;;;;;;5.06;67.66;101658.13;6254778;23;20011;-74
2021/03/02 07:57:07;;;;;;;43.22;15.65;;;;;;;5.18;67.80;101674.69;6206129;23;20015;-75
2021/03/02 07:59:32;;;;;;;39.58;16.30;;;;;;;5.16;68.40;101669.47;6230003;23;20008;-76
2021/03/02 08:02:18;;;;;;;45.47;16.73;;;;;;;5.24;68.50;101682.00;6228524;23;20016;-75
2021/03/02 08:04:45;;;;;;;53.07;19.60;;;;;;;5.27;67.61;101678.94;6227771;23;20060;-76
2021/03/02 08:07:26;;;;;;;49.88;19.30;;;;;;;5.25;68.53;101670.13;6230474;23;20222;-77
2021/03/02 08:10:02;;;;;;;52.97;18.98;;;;;;;5.20;67.82;101653.66;6230691;23;20386;-75
2021/03/02 08:12:35;;;;;;;45.35;17.23;;;;;;;5.30;67.86;101666.81;6256168;22;20091;-78
2021/03/02 08:15:24;;;;;;;51.20;18.45;;;;;;;5.36;68.48;101675.00;6228745;23;20020;-76
2021/03/02 08:18:39;;;;;;;;;;;;;;;;;;;;;
2021/03/02 08:21:31;;;;;;;49.75;18.90;;;;;;;5.26;67.76;101666.41;6257301;23;20020;-74
2021/03/02 08:24:01;;;;;;;51.45;17.50;;;;;;;5.28;67.74;101680.59;6209304;23;20031;-74
2021/03/02 08:26:34;;;;;;;52.53;19.65;;;;;;;5.29;68.06;101676.84;6229582;23;20003;-75
2021/03/02 08:29:12;;;;;;;48.55;17.48;;;;;;;5.44;68.49;101694.88;6222241;23;20012;-75
2021/03/02 08:31:40;;;;;;;50.85;18.92;;;;;;;5.37;67.83;101684.81;6228824;23;20031;-75
2021/03/02 08:34:10;;;;;;;28.50;13.18;;;;;;;5.45;67.96;101696.53;6228431;23;20015;-75
2021/03/02 08:36:36;;;;;;;51.08;17.58;;;;;;;5.47;68.42;101683.63;6224290;23;20072;-76
2021/03/02 08:39:11;;;;;;;55.92;20.00;;;;;;;5.46;68.17;101671.94;6221741;23;20019;-75
2021/03/02 08:41:39;;;;;;;47.63;18.13;;;;;;;5.55;68.39;101695.13;6226710;23;20004;-76
2021/03/02 08:44:18;;;;;;;62.15;20.13;;;;;;;5.63;68.16;101699.53;6255911;23;19996;-75
2021/03/02 08:46:56;;;;;;;52.05;18.90;;;;;;;5.65;67.44;101700.19;6227762;23;20090;-75
2021/03/02 08:49:23;;;;;;;40.25;17.48;;;;;;;5.59;68.12;101690.13;6229577;23;20078;-76
2021/03/02 08:51:56;;;;;;;47.35;18.50;;;;;;;5.58;67.76;101683.88;6230298;23;20012;-75
2021/03/02 08:54:22;;;;;;;44.22;17.63;;;;;;;5.70;67.51;101686.00;6230177;23;20011;-76
2021/03/02 08:56:48;;;;;;;44.08;17.15;;;;;;;5.77;67.51;101684.16;6229127;23;20056;-75
2021/03/02 08:59:14;;;;;;;49.95;17.80;;;;;;;5.90;67.61;101681.50;6256027;23;20004;-76
2021/03/02 09:01:45;;;;;;;42.05;16.70;;;;;;;6.01;67.13;101687.41;6223328;23;20008;-73
2021/03/02 09:04:18;;;;;;;51.95;18.38;;;;;;;6.06;66.88;101688.47;6225975;23;20012;-74
2021/03/02 09:06:55;;;;;;;43.63;16.58;;;;;;;6.14;67.26;101713.75;6230386;23;20008;-72
2021/03/02 09:09:25;;;;;;;48.65;17.80;;;;;;;6.10;66.35;101695.16;6230038;23;20087;-73
2021/03/02 09:11:52;;;;;;;30.02;12.80;;;;;;;6.17;66.32;101707.91;6255220;22;20334;-74
2021/03/02 09:14:22;;;;;;;47.33;17.45;;;;;;;6.28;66.48;101710.03;6253421;23;20016;-73
2021/03/02 09:16:59;;;;;;;47.85;17.95;;;;;;;6.31;66.25;101717.78;6227511;23;20011;-74
2021/03/02 09:19:25;;;;;;;42.00;16.98;;;;;;;6.31;65.99;101712.34;6204387;23;20004;-74
2021/03/02 09:22:05;;;;;;;30.38;14.23;;;;;;;6.23;65.99;101693.50;6225645;23;20106;-73
2021/03/02 09:24:45;;;;;;;37.58;14.60;;;;;;;6.41;65.95;101701.06;6228332;23;20056;-73
2021/03/02 09:27:23;;;;;;;35.50;14.50;;;;;;;6.48;65.74;101696.47;6226748;23;20019;-73
2021/03/02 09:29:50;;;;;;;39.28;16.20;;;;;;;6.51;65.73;101706.09;6255617;23;20095;-73
2021/03/02 09:32:27;;;;;;;42.85;16.05;;;;;;;6.47;65.26;101702.97;6228822;23;20012;-74
2021/03/02 09:35:05;;;;;;;42.80;16.25;;;;;;;6.46;65.43;101707.53;6228993;23;20097;-74
2021/03/02 09:37:35;;;;;;;41.55;17.08;;;;;;;6.51;65.29;101711.53;6255008;23;20000;-74
2021/03/02 09:40:03;;;;;;;39.28;16.27;;;;;;;6.47;65.69;101702.97;6254311;23;20079;-73
2021/03/02 09:42:31;;;;;;;35.75;15.13;;;;;;;6.45;65.30;101697.72;6250855;23;20012;-75
2021/03/02 09:45:11;;;;;;;39.40;16.08;;;;;;;6.55;65.50;101712.78;6226294;23;20001;-74
2021/03/02 09:47:40;;;;;;;38.03;16.85;;;;;;;6.55;65.29;101701.91;6224427;23;20000;-75
2021/03/02 09:50:08;;;;;;;34.03;14.73;;;;;;;6.59;64.90;101704.00;6227200;23;20091;-75
2021/03/02 09:52:39;;;;;;;41.13;14.80;;;;;;;6.56;65.07;101687.28;6224076;23;20570;-74
2021/03/02 09:55:21;;;;;;;37.58;14.75;;;;;;;6.78;64.58;101706.94;6254274;23;20020;-73
2021/03/02 09:58:11;;;;;;;29.92;13.07;;;;;;;6.76;64.69;101709.03;6256862;23;20010;-73
2021/03/02 10:00:45;;;;;;;31.73;13.80;;;;;;;6.87;64.59;101722.00;6258233;23;20074;-74
2021/03/02 10:03:36;;;;;;;19.27;9.38;;;;;;;6.96;64.60;101714.47;6258590;23;20066;-75
2021/03/02 10:06:09;;;;;;;33.05;13.70;;;;;;;7.03;63.82;101703.59;6231913;23;20000;-77
2021/03/02 10:08:52;;;;;;;;;;;;;;;;;;;;;
2021/03/02 10:11:27;;;;;;;31.90;12.60;;;;;;;7.19;63.78;101708.56;6257164;22;20047;-75
2021/03/02 10:14:19;;;;;;;38.25;15.40;;;;;;;7.28;63.98;101714.63;6253656;23;20065;-75
2021/03/02 10:16:54;;;;;;;36.42;15.80;;;;;;;7.37;62.95;101709.78;6256711;23;20077;-76
2021/03/02 10:19:27;;;;;;;;;;;;;;;7.37;62.78;101707.91;6231511;23;20000;-77
2021/03/02 10:21:59;;;;;;;35.17;11.15;;;;;;;7.38;63.37;101712.31;6257947;23;19926;-76
2021/03/02 10:24:36;;;;;;;44.13;17.17;;;;;;;7.56;63.15;101702.63;6232061;23;20046;-76
2021/03/02 10:27:19;;;;;;;34.20;14.98;;;;;;;7.73;62.53;101705.72;6258665;23;20000;-77
2021/03/02 10:29:50;;;;;;;37.85;15.68;;;;;;;7.72;62.81;101691.25;6258420;23;20004;-76
2021/03/02 10:32:16;;;;;;;49.55;18.30;;;;;;;7.80;61.73;101699.19;6229004;23;20000;-77
2021/03/02 10:34:43;;;;;;;42.45;16.63;;;;;;;7.85;62.41;101693.91;6255373;23;20000;-76
2021/03/02 10:37:10;;;;;;;34.53;15.30;;;;;;;7.95;62.15;101689.91;6229904;23;20008;-77
2021/03/02 10:39:46;;;;;;;36.53;15.82;;;;;;;8.01;61.62;101694.47;6230819;23;20012;-78
2021/03/02 10:42:11;;;;;;;38.78;16.52;;;;;;;8.11;61.61;101704.91;6250936;23;19996;-77
2021/03/02 10:44:47;;;;;;;34.20;16.17;;;;;;;8.18;61.40;101711.97;6231737;23;20064;-77
2021/03/02 10:47:22;;;;;;;38.22;16.65;;;;;;;8.19;60.88;101710.94;6207485;23;20008;-78
2021/03/02 10:49:54;;;;;;;27.50;12.82;;;;;;;8.08;60.47;101689.81;6256058;23;20000;-76
2021/03/02 10:52:47;;;;;;;34.83;15.45;;;;;;;8.31;60.42;101694.72;6208704;23;20041;-76
2021/03/02 10:55:15;;;;;;;32.30;13.50;;;;;;;8.38;60.06;101705.53;6230595;23;20000;-76
2021/03/02 10:57:49;;;;;;;28.98;13.05;;;;;;;8.53;59.51;101705.28;6258318;23;20000;-76
2021/03/02 11:00:20;;;;;;;22.88;11.35;;;;;;;8.59;60.45;101693.50;6231253;23;20055;-78
2021/03/02 11:02:46;;;;;;;24.98;10.95;;;;;;;8.82;59.29;101700.22;6258750;23;20000;-78
2021/03/02 11:05:12;;;;;;;31.90;12.07;;;;;;;9.05;59.66;101705.91;6206519;23;20000;-77
2021/03/02 11:07:38;;;;;;;26.80;12.88;;;;;;;9.26;59.34;101706.53;6232063;23;20010;-76
2021/03/02 11:10:05;;;;;;;27.90;12.43;;;;;;;9.37;58.86;101713.13;6231198;23;20012;-76
2021/03/02 11:12:33;;;;;;;36.05;17.70;;;;;;;9.46;58.41;101711.75;6259756;22;20020;-77
2021/03/02 11:15:01;;;;;;;38.53;15.95;;;;;;;9.43;57.63;101710.34;6259243;23;20027;-76
2021/03/02 11:17:29;;;;;;;46.70;19.02;;;;;;;9.35;57.64;101698.88;6207179;23;20034;-76
2021/03/02 11:19:54;;;;;;;29.83;14.23;;;;;;;9.29;58.11;101706.09;6231443;23;20015;-77
2021/03/02 11:22:20;;;;;;;23.98;12.00;;;;;;;9.38;58.11;101703.88;6231004;23;20008;-76
2021/03/02 11:24:45;;;;;;;38.60;17.63;;;;;;;9.56;57.71;101709.38;6258745;23;19996;-76
2021/03/02 11:27:22;;;;;;;29.83;14.73;;;;;;;9.68;57.52;101708.56;6258399;23;20050;-77
2021/03/02 11:29:47;;;;;;;30.13;12.88;;;;;;;9.80;57.20;101706.75;6229721;23;20038;-75
2021/03/02 11:32:13;;;;;;;29.33;15.00;;;;;;;10.03;57.21;101724.31;6258817;23;20407;-75
2021/03/02 11:34:41;;;;;;;43.35;19.52;;;;;;;10.12;55.28;101715.56;6231539;23;20016;-75
2021/03/02 11:37:07;;;;;;;37.55;16.30;;;;;;;10.06;56.00;101699.25;6231090;23;20000;-74
2021/03/02 11:39:35;;;;;;;30.85;13.68;;;;;;;10.29;56.23;101710.31;6258117;23;20008;-75
2021/03/02 11:42:15;;;;;;;25.35;12.60;;;;;;;10.49;56.08;101714.66;6230583;23;19996;-76
2021/03/02 11:44:43;;;;;;;23.75;12.60;;;;;;;10.56;55.79;101704.44;6182910;23;20008;-75
2021/03/02 11:47:11;;;;;;;24.58;13.93;;;;;;;10.72;55.34;101702.09;6234815;23;20000;-76
2021/03/02 11:49:40;;;;;;;28.75;12.70;;;;;;;10.88;54.33;101717.81;6260164;23;20016;-75
2021/03/02 11:52:05;;;;;;;35.30;16.08;;;;;;;10.88;54.12;101706.88;6266788;23;20014;-76